sensor_id;sensor_type;location;lat;lon;timestamp;pressure;altitude;pressure_sealevel;temperature;humidity
16481;BME280;44634;54.110;12.138;2022-07-11T00:01:36;101080.16;;;18.68;100.00
16481;BME280;44634;54.110;12.138;2022-07-11T00:04:04;101052.69;;;18.66;100.00
16481;BME280;44634;54.110;12.138;2022-07-11T00:06:32;101069.75;;;18.88;100.00
16481;BME280;44634;54.110;12.138;2022-07-11T00:09:01;101058.63;;;18.76;100.00
16481;BME280;44634;54.110;12.138;2022-07-11T00:11:29;101050.81;;;19.04;100.00
16481;BME280;44634;54.110;12.138;2022-07-11T00:13:56;101057.75;;;18.98;100.00
16481;BME280;44634;54.110;12.138;2022-07-11T00:16:25;101060.97;;;18.56;100.00
16481;BME280;44634;54.110;12.138;2022-07-11T00:18:53;101019.56;;;18.67;100.00
16481;BME280;44634;54.110;12.138;2022-07-11T00:21:21;101016.25;;;18.42;100.00
16481;BME280;44634;54.110;12.138;2022-07-11T00:23:48;100955.41;;;18.36;100.00
16481;BME280;44634;54.110;12.138;2022-07-11T00:26:17;100937.94;;;18.10;100.00
16481;BME280;44634;54.110;12.138;2022-07-11T00:28:45;100951.53;;;18.24;100.00
16481;BME280;44634;54.110;12.138;2022-07-11T00:31:13;100944.78;;;18.28;100.00
16481;BME280;44634;54.110;12.138;2022-07-11T00:33:41;100952.78;;;18.13;100.00
16481;BME280;44634;54.110;12.138;2022-07-11T00:36:10;100924.75;;;18.24;100.00
16481;BME280;44634;54.110;12.138;2022-07-11T00:38:38;100926.25;;;18.26;100.00
16481;BME280;44634;54.110;12.138;2022-07-11T00:41:06;100911.78;;;17.98;100.00
16481;BME280;44634;54.110;12.138;2022-07-11T00:43:37;100896.03;;;18.03;100.00
16481;BME280;44634;54.110;12.138;2022-07-11T00:46:08;100895.66;;;18.21;100.00
16481;BME280;44634;54.110;12.138;2022-07-11T00:48:36;100917.00;;;18.29;100.00
16481;BME280;44634;54.110;12.138;2022-07-11T00:51:04;100915.00;;;17.93;100.00
16481;BME280;44634;54.110;12.138;2022-07-11T00:53:34;100879.00;;;17.58;100.00
16481;BME280;44634;54.110;12.138;2022-07-11T00:56:02;100833.63;;;17.65;100.00
16481;BME280;44634;54.110;12.138;2022-07-11T00:58:30;100815.34;;;17.76;100.00
16481;BME280;44634;54.110;12.138;2022-07-11T01:00:59;100803.44;;;17.79;100.00
16481;BME280;44634;54.110;12.138;2022-07-11T01:03:27;100792.94;;;17.77;100.00
16481;BME280;44634;54.110;12.138;2022-07-11T01:05:55;100797.38;;;17.70;100.00
16481;BME280;44634;54.110;12.138;2022-07-11T01:08:23;100778.59;;;17.55;100.00
16481;BME280;44634;54.110;12.138;2022-07-11T01:10:51;100781.16;;;17.49;100.00
16481;BME280;44634;54.110;12.138;2022-07-11T01:13:19;100767.34;;;17.60;100.00
16481;BME280;44634;54.110;12.138;2022-07-11T01:15:46;100772.31;;;17.48;100.00
16481;BME280;44634;54.110;12.138;2022-07-11T01:18:16;100764.25;;;17.71;100.00
16481;BME280;44634;54.110;12.138;2022-07-11T01:20:44;100762.59;;;17.70;100.00
16481;BME280;44634;54.110;12.138;2022-07-11T01:23:13;100769.66;;;17.63;100.00
16481;BME280;44634;54.110;12.138;2022-07-11T01:25:40;100770.03;;;17.60;100.00
16481;BME280;44634;54.110;12.138;2022-07-11T01:28:08;100766.50;;;17.45;100.00
16481;BME280;44634;54.110;12.138;2022-07-11T01:30:36;100757.66;;;17.82;100.00
16481;BME280;44634;54.110;12.138;2022-07-11T01:33:04;100754.03;;;17.90;100.00
16481;BME280;44634;54.110;12.138;2022-07-11T01:35:32;100768.16;;;17.46;100.00
16481;BME280;44634;54.110;12.138;2022-07-11T01:38:00;100758.88;;;17.57;100.00
16481;BME280;44634;54.110;12.138;2022-07-11T01:40:30;100746.41;;;17.64;100.00
16481;BME280;44634;54.110;12.138;2022-07-11T01:42:58;100761.34;;;17.58;100.00
16481;BME280;44634;54.110;12.138;2022-07-11T01:45:26;100763.28;;;17.49;100.00
16481;BME280;44634;54.110;12.138;2022-07-11T01:47:54;100763.63;;;17.69;100.00
16481;BME280;44634;54.110;12.138;2022-07-11T01:50:22;100773.25;;;17.55;100.00
16481;BME280;44634;54.110;12.138;2022-07-11T01:52:49;100763.72;;;17.76;100.00
16481;BME280;44634;54.110;12.138;2022-07-11T01:55:17;100779.41;;;17.41;100.00
16481;BME280;44634;54.110;12.138;2022-07-11T01:57:46;100807.56;;;17.29;100.00
16481;BME280;44634;54.110;12.138;2022-07-11T02:00:14;100854.31;;;17.10;100.00
16481;BME280;44634;54.110;12.138;2022-07-11T02:02:42;100888.16;;;17.41;100.00
16481;BME280;44634;54.110;12.138;2022-07-11T02:05:10;100869.81;;;17.38;100.00
16481;BME280;44634;54.110;12.138;2022-07-11T02:07:38;100883.16;;;17.15;100.00
16481;BME280;44634;54.110;12.138;2022-07-11T02:10:23;100884.22;;;17.29;100.00
16481;BME280;44634;54.110;12.138;2022-07-11T02:12:57;100879.09;;;17.19;100.00
16481;BME280;44634;54.110;12.138;2022-07-11T02:15:25;100887.28;;;16.94;100.00
16481;BME280;44634;54.110;12.138;2022-07-11T02:17:53;100898.81;;;16.95;100.00
16481;BME280;44634;54.110;12.138;2022-07-11T02:20:21;100912.28;;;17.02;100.00
16481;BME280;44634;54.110;12.138;2022-07-11T02:22:49;100913.63;;;17.29;100.00
16481;BME280;44634;54.110;12.138;2022-07-11T02:25:18;100922.00;;;16.94;100.00
16481;BME280;44634;54.110;12.138;2022-07-11T02:27:47;100921.03;;;16.87;100.00
16481;BME280;44634;54.110;12.138;2022-07-11T02:30:18;100917.69;;;17.24;100.00
16481;BME280;44634;54.110;12.138;2022-07-11T02:32:45;100909.22;;;17.36;100.00
16481;BME280;44634;54.110;12.138;2022-07-11T02:35:13;100889.41;;;17.30;100.00
16481;BME280;44634;54.110;12.138;2022-07-11T02:37:41;100875.44;;;17.43;100.00
16481;BME280;44634;54.110;12.138;2022-07-11T02:40:10;100884.59;;;17.25;100.00
16481;BME280;44634;54.110;12.138;2022-07-11T02:42:38;100870.97;;;17.58;100.00
16481;BME280;44634;54.110;12.138;2022-07-11T02:45:07;100860.88;;;17.45;100.00
16481;BME280;44634;54.110;12.138;2022-07-11T02:47:37;100842.63;;;17.49;100.00
16481;BME280;44634;54.110;12.138;2022-07-11T02:50:07;100850.41;;;17.59;100.00
16481;BME280;44634;54.110;12.138;2022-07-11T02:52:35;100855.31;;;17.55;100.00
16481;BME280;44634;54.110;12.138;2022-07-11T02:55:04;100850.69;;;17.87;100.00
16481;BME280;44634;54.110;12.138;2022-07-11T02:57:34;100834.47;;;17.88;100.00
16481;BME280;44634;54.110;12.138;2022-07-11T03:00:03;100826.41;;;17.73;100.00
16481;BME280;44634;54.110;12.138;2022-07-11T03:02:31;100828.72;;;17.76;100.00
16481;BME280;44634;54.110;12.138;2022-07-11T03:05:00;100835.44;;;17.49;100.00
16481;BME280;44634;54.110;12.138;2022-07-11T03:07:28;100847.25;;;17.78;100.00
16481;BME280;44634;54.110;12.138;2022-07-11T03:09:56;100840.69;;;17.66;100.00
16481;BME280;44634;54.110;12.138;2022-07-11T03:12:24;100837.31;;;17.87;100.00
16481;BME280;44634;54.110;12.138;2022-07-11T03:14:52;100840.84;;;17.64;100.00
16481;BME280;44634;54.110;12.138;2022-07-11T03:17:20;100851.78;;;17.77;100.00
16481;BME280;44634;54.110;12.138;2022-07-11T03:19:48;100850.50;;;17.50;100.00
16481;BME280;44634;54.110;12.138;2022-07-11T03:22:18;100859.94;;;17.38;100.00
16481;BME280;44634;54.110;12.138;2022-07-11T03:24:45;100872.00;;;17.34;100.00
16481;BME280;44634;54.110;12.138;2022-07-11T03:27:13;100890.19;;;17.39;100.00
16481;BME280;44634;54.110;12.138;2022-07-11T03:29:41;100916.22;;;17.14;100.00
16481;BME280;44634;54.110;12.138;2022-07-11T03:32:09;100927.00;;;17.29;100.00
16481;BME280;44634;54.110;12.138;2022-07-11T03:34:37;100900.00;;;17.69;100.00
16481;BME280;44634;54.110;12.138;2022-07-11T03:37:05;100880.78;;;17.89;100.00
16481;BME280;44634;54.110;12.138;2022-07-11T03:39:34;100881.44;;;17.68;100.00
16481;BME280;44634;54.110;12.138;2022-07-11T03:42:02;100894.66;;;17.69;100.00
16481;BME280;44634;54.110;12.138;2022-07-11T03:44:30;100911.91;;;17.59;100.00
16481;BME280;44634;54.110;12.138;2022-07-11T03:46:58;100915.88;;;17.71;100.00
16481;BME280;44634;54.110;12.138;2022-07-11T03:49:26;100892.31;;;17.89;100.00
16481;BME280;44634;54.110;12.138;2022-07-11T03:51:54;100920.84;;;17.74;100.00
16481;BME280;44634;54.110;12.138;2022-07-11T03:54:21;100930.66;;;17.81;100.00
16481;BME280;44634;54.110;12.138;2022-07-11T03:56:51;100939.94;;;17.63;100.00
16481;BME280;44634;54.110;12.138;2022-07-11T03:59:19;100951.41;;;17.79;100.00
16481;BME280;44634;54.110;12.138;2022-07-11T04:01:46;100950.28;;;17.74;100.00
16481;BME280;44634;54.110;12.138;2022-07-11T04:04:15;100953.28;;;17.94;100.00
16481;BME280;44634;54.110;12.138;2022-07-11T04:06:43;100943.44;;;17.94;100.00
16481;BME280;44634;54.110;12.138;2022-07-11T04:09:11;100938.78;;;18.26;100.00
16481;BME280;44634;54.110;12.138;2022-07-11T04:11:38;100949.78;;;17.93;100.00
16481;BME280;44634;54.110;12.138;2022-07-11T04:14:08;100943.28;;;18.10;100.00
16481;BME280;44634;54.110;12.138;2022-07-11T04:16:36;100952.94;;;17.97;100.00
16481;BME280;44634;54.110;12.138;2022-07-11T04:19:03;100968.25;;;18.03;100.00
16481;BME280;44634;54.110;12.138;2022-07-11T04:21:31;100976.75;;;17.61;100.00
16481;BME280;44634;54.110;12.138;2022-07-11T04:23:59;100983.94;;;18.06;100.00
16481;BME280;44634;54.110;12.138;2022-07-11T04:26:27;100990.75;;;17.71;100.00
16481;BME280;44634;54.110;12.138;2022-07-11T04:28:55;101000.81;;;17.61;100.00
16481;BME280;44634;54.110;12.138;2022-07-11T04:31:24;101014.53;;;17.89;100.00
16481;BME280;44634;54.110;12.138;2022-07-11T04:33:52;101007.50;;;17.88;100.00
16481;BME280;44634;54.110;12.138;2022-07-11T04:36:20;101033.84;;;17.76;100.00
16481;BME280;44634;54.110;12.138;2022-07-11T04:38:49;101053.81;;;17.88;100.00
16481;BME280;44634;54.110;12.138;2022-07-11T04:41:18;101014.38;;;18.28;100.00
16481;BME280;44634;54.110;12.138;2022-07-11T04:43:46;101015.91;;;17.84;100.00
16481;BME280;44634;54.110;12.138;2022-07-11T04:46:14;101040.91;;;17.92;100.00
16481;BME280;44634;54.110;12.138;2022-07-11T04:48:43;101044.09;;;17.95;100.00
16481;BME280;44634;54.110;12.138;2022-07-11T04:51:11;101051.28;;;17.95;100.00
16481;BME280;44634;54.110;12.138;2022-07-11T04:53:39;101017.72;;;18.30;100.00
16481;BME280;44634;54.110;12.138;2022-07-11T04:56:07;101013.16;;;17.93;100.00
16481;BME280;44634;54.110;12.138;2022-07-11T04:58:36;101022.31;;;18.36;100.00
16481;BME280;44634;54.110;12.138;2022-07-11T05:01:04;100999.13;;;18.13;100.00
16481;BME280;44634;54.110;12.138;2022-07-11T05:03:32;100994.66;;;18.06;100.00
16481;BME280;44634;54.110;12.138;2022-07-11T05:06:01;101012.59;;;18.20;100.00
16481;BME280;44634;54.110;12.138;2022-07-11T05:08:29;101017.78;;;18.22;100.00
16481;BME280;44634;54.110;12.138;2022-07-11T05:10:57;101023.13;;;18.22;100.00
16481;BME280;44634;54.110;12.138;2022-07-11T05:13:24;101026.16;;;18.19;100.00
16481;BME280;44634;54.110;12.138;2022-07-11T05:15:52;101013.00;;;18.32;100.00
16481;BME280;44634;54.110;12.138;2022-07-11T05:18:20;101009.63;;;18.38;100.00
16481;BME280;44634;54.110;12.138;2022-07-11T05:20:48;101026.53;;;18.16;100.00
16481;BME280;44634;54.110;12.138;2022-07-11T05:23:17;101033.97;;;18.05;100.00
16481;BME280;44634;54.110;12.138;2022-07-11T05:25:48;101045.31;;;18.30;100.00
16481;BME280;44634;54.110;12.138;2022-07-11T05:28:16;101059.13;;;18.19;100.00
16481;BME280;44634;54.110;12.138;2022-07-11T05:30:43;101032.69;;;18.39;100.00
16481;BME280;44634;54.110;12.138;2022-07-11T05:33:11;101011.84;;;18.49;100.00
16481;BME280;44634;54.110;12.138;2022-07-11T05:35:39;101001.59;;;18.38;100.00
16481;BME280;44634;54.110;12.138;2022-07-11T05:38:07;100993.25;;;18.70;100.00
16481;BME280;44634;54.110;12.138;2022-07-11T05:40:36;100995.31;;;18.60;100.00
16481;BME280;44634;54.110;12.138;2022-07-11T05:43:04;101006.03;;;18.60;100.00
16481;BME280;44634;54.110;12.138;2022-07-11T05:45:32;101012.56;;;18.43;100.00
16481;BME280;44634;54.110;12.138;2022-07-11T05:48:00;101018.59;;;18.60;100.00
16481;BME280;44634;54.110;12.138;2022-07-11T05:50:28;101023.56;;;18.63;100.00
16481;BME280;44634;54.110;12.138;2022-07-11T05:52:56;101011.22;;;18.62;100.00
16481;BME280;44634;54.110;12.138;2022-07-11T05:55:25;101033.69;;;18.23;100.00
16481;BME280;44634;54.110;12.138;2022-07-11T05:57:54;101041.78;;;18.53;100.00
16481;BME280;44634;54.110;12.138;2022-07-11T06:00:22;101044.66;;;18.28;100.00
16481;BME280;44634;54.110;12.138;2022-07-11T06:02:52;101052.38;;;18.46;100.00
16481;BME280;44634;54.110;12.138;2022-07-11T06:05:20;101053.56;;;18.66;100.00
16481;BME280;44634;54.110;12.138;2022-07-11T06:07:48;101040.25;;;18.73;100.00
16481;BME280;44634;54.110;12.138;2022-07-11T06:10:33;101033.38;;;18.56;100.00
16481;BME280;44634;54.110;12.138;2022-07-11T06:13:03;101001.84;;;18.81;100.00
16481;BME280;44634;54.110;12.138;2022-07-11T06:15:30;101010.97;;;18.71;100.00
16481;BME280;44634;54.110;12.138;2022-07-11T06:17:58;101038.97;;;18.46;100.00
16481;BME280;44634;54.110;12.138;2022-07-11T06:20:26;101029.38;;;18.89;100.00
16481;BME280;44634;54.110;12.138;2022-07-11T06:22:54;101032.97;;;18.44;100.00
16481;BME280;44634;54.110;12.138;2022-07-11T06:25:22;101033.53;;;18.39;100.00
16481;BME280;44634;54.110;12.138;2022-07-11T06:27:50;101029.44;;;18.29;100.00
16481;BME280;44634;54.110;12.138;2022-07-11T06:30:20;101030.31;;;18.44;100.00
16481;BME280;44634;54.110;12.138;2022-07-11T06:32:48;101021.59;;;18.94;100.00
16481;BME280;44634;54.110;12.138;2022-07-11T06:35:16;101009.03;;;18.95;100.00
16481;BME280;44634;54.110;12.138;2022-07-11T06:37:43;101027.25;;;18.70;100.00
16481;BME280;44634;54.110;12.138;2022-07-11T06:40:11;101012.56;;;19.10;100.00
16481;BME280;44634;54.110;12.138;2022-07-11T06:42:39;101017.75;;;18.82;100.00
16481;BME280;44634;54.110;12.138;2022-07-11T06:45:08;101039.16;;;18.44;100.00
16481;BME280;44634;54.110;12.138;2022-07-11T06:47:37;101042.47;;;18.47;100.00
16481;BME280;44634;54.110;12.138;2022-07-11T06:50:06;101052.63;;;18.13;100.00
16481;BME280;44634;54.110;12.138;2022-07-11T06:52:34;101057.50;;;18.33;100.00
16481;BME280;44634;54.110;12.138;2022-07-11T06:55:03;101056.00;;;18.53;100.00
16481;BME280;44634;54.110;12.138;2022-07-11T06:57:31;101048.03;;;18.83;100.00
16481;BME280;44634;54.110;12.138;2022-07-11T06:59:58;101037.59;;;18.88;100.00
16481;BME280;44634;54.110;12.138;2022-07-11T07:02:27;101040.63;;;18.70;100.00
16481;BME280;44634;54.110;12.138;2022-07-11T07:04:58;101017.91;;;19.10;100.00
16481;BME280;44634;54.110;12.138;2022-07-11T07:07:26;101016.59;;;19.21;100.00
16481;BME280;44634;54.110;12.138;2022-07-11T07:09:54;101000.72;;;19.05;100.00
16481;BME280;44634;54.110;12.138;2022-07-11T07:12:22;100974.78;;;19.41;100.00
16481;BME280;44634;54.110;12.138;2022-07-11T07:14:50;100950.97;;;19.96;100.00
16481;BME280;44634;54.110;12.138;2022-07-11T07:17:18;100951.94;;;19.67;100.00
16481;BME280;44634;54.110;12.138;2022-07-11T07:19:46;100946.63;;;19.95;100.00
16481;BME280;44634;54.110;12.138;2022-07-11T07:22:15;100949.84;;;19.83;100.00
16481;BME280;44634;54.110;12.138;2022-07-11T07:24:43;100963.22;;;19.41;100.00
16481;BME280;44634;54.110;12.138;2022-07-11T07:27:11;100966.03;;;19.54;100.00
16481;BME280;44634;54.110;12.138;2022-07-11T07:29:39;100963.72;;;19.51;100.00
16481;BME280;44634;54.110;12.138;2022-07-11T07:32:07;100971.38;;;19.32;100.00
16481;BME280;44634;54.110;12.138;2022-07-11T07:34:35;100965.38;;;19.88;100.00
16481;BME280;44634;54.110;12.138;2022-07-11T07:37:03;100976.88;;;19.82;100.00
16481;BME280;44634;54.110;12.138;2022-07-11T07:39:32;100952.34;;;19.85;100.00
16481;BME280;44634;54.110;12.138;2022-07-11T07:42:00;100958.22;;;19.38;100.00
16481;BME280;44634;54.110;12.138;2022-07-11T07:44:28;100968.69;;;19.90;100.00
16481;BME280;44634;54.110;12.138;2022-07-11T07:46:56;100982.81;;;19.56;100.00
16481;BME280;44634;54.110;12.138;2022-07-11T07:49:24;100977.69;;;20.04;100.00
16481;BME280;44634;54.110;12.138;2022-07-11T07:51:51;100978.19;;;19.92;100.00
16481;BME280;44634;54.110;12.138;2022-07-11T07:54:19;100976.88;;;20.31;100.00
16481;BME280;44634;54.110;12.138;2022-07-11T07:56:48;100980.41;;;20.10;100.00
16481;BME280;44634;54.110;12.138;2022-07-11T07:59:16;100993.22;;;20.36;100.00
16481;BME280;44634;54.110;12.138;2022-07-11T08:01:44;101022.38;;;20.39;100.00
16481;BME280;44634;54.110;12.138;2022-07-11T08:04:12;101035.25;;;21.06;100.00
16481;BME280;44634;54.110;12.138;2022-07-11T08:06:40;101053.44;;;20.70;100.00
16481;BME280;44634;54.110;12.138;2022-07-11T08:09:08;101046.47;;;20.26;100.00
16481;BME280;44634;54.110;12.138;2022-07-11T08:11:37;101050.34;;;20.24;100.00
16481;BME280;44634;54.110;12.138;2022-07-11T08:14:06;101094.69;;;20.56;100.00
16481;BME280;44634;54.110;12.138;2022-07-11T08:16:35;101088.06;;;20.37;100.00
16481;BME280;44634;54.110;12.138;2022-07-11T08:19:04;101066.38;;;20.38;100.00
16481;BME280;44634;54.110;12.138;2022-07-11T08:21:33;101101.72;;;20.57;100.00
16481;BME280;44634;54.110;12.138;2022-07-11T08:24:02;101138.19;;;20.30;100.00
16481;BME280;44634;54.110;12.138;2022-07-11T08:26:29;101111.81;;;20.83;100.00
16481;BME280;44634;54.110;12.138;2022-07-11T08:29:00;101162.13;;;20.89;100.00
16481;BME280;44634;54.110;12.138;2022-07-11T08:31:29;101134.88;;;20.28;100.00
16481;BME280;44634;54.110;12.138;2022-07-11T08:33:58;101105.59;;;20.54;100.00
16481;BME280;44634;54.110;12.138;2022-07-11T08:36:27;101127.91;;;20.33;100.00
16481;BME280;44634;54.110;12.138;2022-07-11T08:38:57;101179.03;;;21.10;100.00
16481;BME280;44634;54.110;12.138;2022-07-11T08:41:24;101239.03;;;21.67;100.00
16481;BME280;44634;54.110;12.138;2022-07-11T08:43:52;101218.13;;;20.85;100.00
16481;BME280;44634;54.110;12.138;2022-07-11T08:46:21;101108.22;;;20.26;100.00
16481;BME280;44634;54.110;12.138;2022-07-11T08:48:51;101187.16;;;20.68;100.00
16481;BME280;44634;54.110;12.138;2022-07-11T08:51:20;101185.25;;;20.83;100.00
16481;BME280;44634;54.110;12.138;2022-07-11T08:53:50;101207.25;;;21.21;100.00
16481;BME280;44634;54.110;12.138;2022-07-11T08:56:19;101242.97;;;20.87;100.00
16481;BME280;44634;54.110;12.138;2022-07-11T08:58:49;101210.31;;;20.90;100.00
16481;BME280;44634;54.110;12.138;2022-07-11T09:01:27;101212.94;;;21.12;100.00
16481;BME280;44634;54.110;12.138;2022-07-11T09:03:57;101197.75;;;20.97;100.00
16481;BME280;44634;54.110;12.138;2022-07-11T09:06:26;101180.50;;;20.64;100.00
16481;BME280;44634;54.110;12.138;2022-07-11T09:08:57;101224.06;;;21.02;100.00
16481;BME280;44634;54.110;12.138;2022-07-11T09:11:25;101249.56;;;21.62;100.00
16481;BME280;44634;54.110;12.138;2022-07-11T09:13:54;101300.88;;;21.11;100.00
16481;BME280;44634;54.110;12.138;2022-07-11T09:16:22;101267.69;;;20.83;100.00
16481;BME280;44634;54.110;12.138;2022-07-11T09:18:59;101210.06;;;20.64;100.00
16481;BME280;44634;54.110;12.138;2022-07-11T09:21:27;101261.25;;;21.41;100.00
16481;BME280;44634;54.110;12.138;2022-07-11T09:24:12;101328.31;;;21.43;100.00
16481;BME280;44634;54.110;12.138;2022-07-11T09:26:58;101312.81;;;20.66;100.00
16481;BME280;44634;54.110;12.138;2022-07-11T09:29:25;101293.25;;;21.36;100.00
16481;BME280;44634;54.110;12.138;2022-07-11T09:31:54;101359.44;;;21.80;100.00
16481;BME280;44634;54.110;12.138;2022-07-11T09:34:24;101395.59;;;21.49;100.00
16481;BME280;44634;54.110;12.138;2022-07-11T09:36:55;101459.28;;;21.63;100.00
16481;BME280;44634;54.110;12.138;2022-07-11T09:39:25;101431.03;;;21.53;100.00
16481;BME280;44634;54.110;12.138;2022-07-11T09:41:54;101469.81;;;21.58;100.00
16481;BME280;44634;54.110;12.138;2022-07-11T09:44:23;101459.22;;;21.78;100.00
16481;BME280;44634;54.110;12.138;2022-07-11T09:46:55;101513.03;;;21.35;100.00
16481;BME280;44634;54.110;12.138;2022-07-11T09:49:32;101576.81;;;21.56;100.00
16481;BME280;44634;54.110;12.138;2022-07-11T09:52:07;101545.88;;;20.72;100.00
16481;BME280;44634;54.110;12.138;2022-07-11T09:54:51;101586.84;;;21.84;100.00
16481;BME280;44634;54.110;12.138;2022-07-11T09:57:28;101565.31;;;21.48;100.00
16481;BME280;44634;54.110;12.138;2022-07-11T09:59:56;101576.53;;;21.87;100.00
16481;BME280;44634;54.110;12.138;2022-07-11T10:02:26;101576.03;;;21.41;100.00
16481;BME280;44634;54.110;12.138;2022-07-11T10:04:57;101600.16;;;22.07;100.00
16481;BME280;44634;54.110;12.138;2022-07-11T10:07:25;101578.22;;;22.10;100.00
16481;BME280;44634;54.110;12.138;2022-07-11T10:09:53;101597.41;;;22.43;100.00
16481;BME280;44634;54.110;12.138;2022-07-11T10:12:22;101612.69;;;22.14;100.00
16481;BME280;44634;54.110;12.138;2022-07-11T10:14:50;101552.13;;;21.89;100.00
16481;BME280;44634;54.110;12.138;2022-07-11T10:17:26;101617.44;;;21.61;100.00
16481;BME280;44634;54.110;12.138;2022-07-11T10:20:09;101661.00;;;22.59;100.00
16481;BME280;44634;54.110;12.138;2022-07-11T10:22:43;101618.69;;;22.59;100.00
16481;BME280;44634;54.110;12.138;2022-07-11T10:25:31;101728.75;;;23.26;100.00
16481;BME280;44634;54.110;12.138;2022-07-11T10:28:23;101718.66;;;23.07;100.00
16481;BME280;44634;54.110;12.138;2022-07-11T10:30:54;101659.41;;;22.43;100.00
16481;BME280;44634;54.110;12.138;2022-07-11T10:33:27;101662.84;;;22.15;100.00
16481;BME280;44634;54.110;12.138;2022-07-11T10:35:57;101646.69;;;23.14;100.00
16481;BME280;44634;54.110;12.138;2022-07-11T10:38:26;101657.97;;;22.47;100.00
16481;BME280;44634;54.110;12.138;2022-07-11T10:40:56;101686.81;;;23.24;100.00
16481;BME280;44634;54.110;12.138;2022-07-11T10:43:36;101780.16;;;23.67;100.00
16481;BME280;44634;54.110;12.138;2022-07-11T10:46:06;101837.63;;;23.12;100.00
16481;BME280;44634;54.110;12.138;2022-07-11T10:48:36;101940.53;;;24.22;100.00
16481;BME280;44634;54.110;12.138;2022-07-11T10:51:25;101910.59;;;23.25;100.00
16481;BME280;44634;54.110;12.138;2022-07-11T10:54:05;101951.34;;;24.57;100.00
16481;BME280;44634;54.110;12.138;2022-07-11T10:56:55;101964.34;;;24.12;100.00
16481;BME280;44634;54.110;12.138;2022-07-11T10:59:25;101983.47;;;25.14;100.00
16481;BME280;44634;54.110;12.138;2022-07-11T11:02:04;101987.38;;;24.29;100.00
16481;BME280;44634;54.110;12.138;2022-07-11T11:04:43;101983.56;;;24.52;100.00
16481;BME280;44634;54.110;12.138;2022-07-11T11:07:31;101994.25;;;25.01;100.00
16481;BME280;44634;54.110;12.138;2022-07-11T11:10:03;101975.09;;;24.61;100.00
16481;BME280;44634;54.110;12.138;2022-07-11T11:15:39;102022.00;;;25.77;100.00
16481;BME280;44634;54.110;12.138;2022-07-11T11:18:29;102004.63;;;25.52;100.00
16481;BME280;44634;54.110;12.138;2022-07-11T11:21:14;101974.69;;;24.65;100.00
16481;BME280;44634;54.110;12.138;2022-07-11T11:23:45;102001.75;;;26.33;100.00
16481;BME280;44634;54.110;12.138;2022-07-11T11:26:18;102002.16;;;26.17;100.00
16481;BME280;44634;54.110;12.138;2022-07-11T11:28:57;102020.50;;;25.68;100.00
16481;BME280;44634;54.110;12.138;2022-07-11T11:31:26;102022.97;;;26.69;100.00
16481;BME280;44634;54.110;12.138;2022-07-11T11:33:57;102014.50;;;25.93;100.00
16481;BME280;44634;54.110;12.138;2022-07-11T11:36:25;102014.91;;;26.09;100.00
16481;BME280;44634;54.110;12.138;2022-07-11T11:38:55;102027.44;;;26.04;100.00
16481;BME280;44634;54.110;12.138;2022-07-11T11:41:25;101995.72;;;25.78;100.00
16481;BME280;44634;54.110;12.138;2022-07-11T11:43:54;102019.50;;;26.42;100.00
16481;BME280;44634;54.110;12.138;2022-07-11T11:46:24;102031.84;;;27.54;100.00
16481;BME280;44634;54.110;12.138;2022-07-11T11:48:54;102036.91;;;26.86;100.00
16481;BME280;44634;54.110;12.138;2022-07-11T11:51:22;102017.00;;;25.94;100.00
16481;BME280;44634;54.110;12.138;2022-07-11T11:53:51;102009.25;;;25.71;100.00
16481;BME280;44634;54.110;12.138;2022-07-11T11:56:22;102002.78;;;24.63;100.00
16481;BME280;44634;54.110;12.138;2022-07-11T11:58:56;102033.25;;;26.14;100.00
16481;BME280;44634;54.110;12.138;2022-07-11T12:01:33;102011.56;;;24.72;100.00
16481;BME280;44634;54.110;12.138;2022-07-11T12:04:03;102028.22;;;25.04;100.00
16481;BME280;44634;54.110;12.138;2022-07-11T12:06:33;102012.25;;;24.87;100.00
16481;BME280;44634;54.110;12.138;2022-07-11T12:09:03;102010.72;;;25.80;100.00
16481;BME280;44634;54.110;12.138;2022-07-11T12:11:34;102013.84;;;25.84;100.00
16481;BME280;44634;54.110;12.138;2022-07-11T12:14:04;102025.50;;;25.04;100.00
16481;BME280;44634;54.110;12.138;2022-07-11T12:16:33;102023.16;;;25.55;100.00
16481;BME280;44634;54.110;12.138;2022-07-11T12:19:16;102018.03;;;25.12;100.00
16481;BME280;44634;54.110;12.138;2022-07-11T12:21:45;102032.00;;;26.50;100.00
16481;BME280;44634;54.110;12.138;2022-07-11T12:24:16;102035.69;;;26.82;100.00
16481;BME280;44634;54.110;12.138;2022-07-11T12:26:46;102039.06;;;26.57;100.00
16481;BME280;44634;54.110;12.138;2022-07-11T12:29:15;102042.22;;;27.25;95.50
16481;BME280;44634;54.110;12.138;2022-07-11T12:31:47;102054.75;;;26.42;95.10
16481;BME280;44634;54.110;12.138;2022-07-11T12:34:18;102055.56;;;26.43;91.47
16481;BME280;44634;54.110;12.138;2022-07-11T12:36:47;102052.44;;;26.65;93.38
16481;BME280;44634;54.110;12.138;2022-07-11T12:39:22;102051.09;;;27.01;92.73
16481;BME280;44634;54.110;12.138;2022-07-11T12:41:54;102053.91;;;26.35;96.91
16481;BME280;44634;54.110;12.138;2022-07-11T12:44:23;102052.00;;;26.16;94.96
16481;BME280;44634;54.110;12.138;2022-07-11T12:47:08;102047.34;;;26.95;95.22